Time;durP1;ratioP1;P1;durP2;ratioP2;P2;SDS_P1;SDS_P2;PMS_P1;PMS_P2;Temp;Humidity;BMP_temperature;BMP_pressure;BME280_temperature;BME280_humidity;BME280_pressure;Samples;Min_cycle;Max_cycle;Signal;HPM_P1;HPM_P2
2022/11/30 00:01:10;;;;;;;27.95;14.60;;;;;;;4.86;100.00;97563.03;5007985;28;20038;-64
2022/11/30 00:03:36;;;;;;;26.63;13.73;;;;;;;4.85;100.00;97562.19;5008012;28;20066;-64
2022/11/30 00:06:08;;;;;;;27.85;14.27;;;;;;;4.78;100.00;97556.84;5007979;28;20509;-64
2022/11/30 00:08:35;;;;;;;28.50;14.52;;;;;;;4.72;100.00;97557.66;5008235;28;20057;-64
2022/11/30 00:11:17;;;;;;;27.33;15.05;;;;;;;4.73;100.00;97555.81;5018862;28;20398;-64
2022/11/30 00:13:44;;;;;;;;;;;;;;;4.69;100.00;97563.47;5027343;28;20050;-64
2022/11/30 00:16:10;;;;;;;28.25;15.73;;;;;;;4.72;100.00;97560.34;5027269;28;19921;-64
2022/11/30 00:18:37;;;;;;;29.23;15.98;;;;;;;4.73;100.00;97553.97;5025220;28;20053;-64
2022/11/30 00:21:07;;;;;;;28.25;15.18;;;;;;;4.72;100.00;97557.66;5006932;28;20465;-64
2022/11/30 00:23:36;;;;;;;33.13;16.55;;;;;;;4.66;100.00;97558.53;5010136;28;20040;-64
2022/11/30 00:26:06;;;;;;;32.50;15.65;;;;;;;4.68;100.00;97551.91;5027126;28;20041;-63
2022/11/30 00:28:34;;;;;;;30.73;16.50;;;;;;;4.73;100.00;97553.13;5027240;28;20466;-63
2022/11/30 00:31:03;;;;;;;35.05;17.50;;;;;;;4.68;100.00;97551.91;5026742;28;20065;-64
2022/11/30 00:33:35;;;;;;;38.42;17.65;;;;;;;4.68;100.00;97556.44;5027019;28;20045;-65
2022/11/30 00:36:09;;;;;;;36.15;16.38;;;;;;;4.63;100.00;97558.94;5027447;28;20057;-64
2022/11/30 00:38:35;;;;;;;37.30;17.17;;;;;;;4.64;100.00;97558.72;5027008;28;20049;-64
2022/11/30 00:41:03;;;;;;;38.92;17.75;;;;;;;4.62;100.00;97555.44;5026974;28;20041;-64
2022/11/30 00:43:29;;;;;;;39.10;18.17;;;;;;;4.60;100.00;97560.16;5027451;28;20046;-64
2022/11/30 00:45:56;;;;;;;40.85;18.20;;;;;;;4.66;100.00;97561.19;5027195;28;20133;-63
2022/11/30 00:48:23;;;;;;;38.20;16.90;;;;;;;4.62;100.00;97552.75;5028385;28;20057;-64
2022/11/30 00:50:50;;;;;;;36.22;15.82;;;;;;;4.52;100.00;97553.19;5020471;28;20045;-64
2022/11/30 00:53:18;;;;;;;40.15;15.10;;;;;;;4.51;100.00;97554.22;5027373;28;20112;-64
2022/11/30 00:55:45;;;;;;;37.75;15.07;;;;;;;4.52;100.00;97560.38;5007522;28;20045;-64
2022/11/30 00:58:12;;;;;;;39.38;16.80;;;;;;;4.53;100.00;97554.81;5007007;28;20046;-64
2022/11/30 01:00:40;;;;;;;40.13;17.05;;;;;;;4.52;100.00;97558.53;5006551;28;20136;-64
2022/11/30 01:03:07;;;;;;;38.15;14.93;;;;;;;4.60;100.00;97562.06;5006738;28;20525;-64
2022/11/30 01:05:34;;;;;;;31.88;13.85;;;;;;;4.62;100.00;97560.81;5006508;28;20045;-64
2022/11/30 01:08:02;;;;;;;32.63;15.50;;;;;;;4.65;100.00;97563.03;5015004;28;20068;-64
2022/11/30 01:10:29;;;;;;;37.83;16.73;;;;;;;4.52;100.00;97558.53;5017367;28;20037;-63
2022/11/30 01:12:56;;;;;;;39.00;16.42;;;;;;;4.59;100.00;97563.06;5015754;28;20435;-64
2022/11/30 01:15:22;;;;;;;39.10;14.48;;;;;;;4.51;100.00;97561.44;5012929;28;20048;-63
2022/11/30 01:17:49;;;;;;;32.00;13.25;;;;;;;4.55;100.00;97563.50;5022362;28;20080;-64
2022/11/30 01:20:15;;;;;;;34.97;14.75;;;;;;;4.49;100.00;97567.00;5023641;28;20045;-64
2022/11/30 01:22:42;;;;;;;32.95;14.63;;;;;;;4.58;100.00;97569.47;5025738;28;20046;-63
2022/11/30 01:25:09;;;;;;;33.33;14.35;;;;;;;4.72;100.00;97567.59;5017673;28;20561;-64
2022/11/30 01:27:35;;;;;;;36.42;14.73;;;;;;;4.66;100.00;97564.72;5006463;28;20194;-63
2022/11/30 01:30:02;;;;;;;32.45;14.77;;;;;;;4.74;100.00;97563.66;5006491;28;20071;-64
2022/11/30 01:32:29;;;;;;;28.83;12.32;;;;;;;4.76;100.00;97563.47;5006341;28;20046;-64
2022/11/30 01:34:55;;;;;;;30.70;14.70;;;;;;;4.67;100.00;97565.53;5006536;28;20100;-64
2022/11/30 01:37:22;;;;;;;31.52;15.00;;;;;;;4.55;100.00;97563.50;5006975;28;20205;-63
2022/11/30 01:39:48;;;;;;;31.13;14.77;;;;;;;4.58;100.00;97564.09;5006492;28;20045;-63
2022/11/30 01:42:17;;;;;;;32.65;14.27;;;;;;;4.61;100.00;97566.38;5013765;28;20067;-63
2022/11/30 01:44:49;;;;;;;33.65;14.60;;;;;;;4.59;100.00;97571.09;5006113;28;20520;-64
2022/11/30 01:47:19;;;;;;;30.88;14.30;;;;;;;4.57;100.00;97567.81;5018541;28;20421;-63
2022/11/30 01:49:54;;;;;;;26.83;12.50;;;;;;;4.58;100.00;97572.97;5020101;28;20189;-64
2022/11/30 01:52:28;;;;;;;30.45;14.27;;;;;;;4.55;100.00;97579.59;5025786;28;20472;-63
2022/11/30 01:55:15;;;;;;;35.72;16.50;;;;;;;4.49;100.00;97575.03;5026410;28;20398;-65
2022/11/30 01:57:56;;;;;;;36.38;18.13;;;;;;;4.40;100.00;97581.66;5025629;28;20076;-63
2022/11/30 02:00:23;;;;;;;35.75;18.10;;;;;;;4.41;100.00;97584.13;5025985;28;20072;-64
2022/11/30 02:02:59;;;;;;;42.00;18.70;;;;;;;4.38;100.00;97586.38;5025720;28;20061;-63
2022/11/30 02:05:26;;;;;;;42.30;20.17;;;;;;;4.32;100.00;97577.34;5025422;28;20041;-64
2022/11/30 02:07:53;;;;;;;40.40;18.80;;;;;;;4.32;100.00;97587.22;5026115;28;20103;-64
2022/11/30 02:10:27;;;;;;;44.83;19.48;;;;;;;4.28;100.00;97582.25;5025508;28;20050;-64
2022/11/30 02:13:05;;;;;;;42.28;20.60;;;;;;;4.25;100.00;97593.41;5013681;28;20121;-63
2022/11/30 02:15:57;;;;;;;41.22;18.92;;;;;;;4.26;100.00;97587.00;5011697;28;20079;-63
2022/11/30 02:18:45;;;;;;;49.58;20.33;;;;;;;4.25;100.00;97592.56;5009302;28;20073;-64
2022/11/30 02:21:21;;;;;;;44.15;19.98;;;;;;;4.22;100.00;97593.81;5012811;28;20072;-64
2022/11/30 02:24:14;;;;;;;45.92;20.17;;;;;;;4.22;100.00;97598.34;5006241;28;20129;-64
2022/11/30 02:27:02;;;;;;;44.03;19.83;;;;;;;4.23;100.00;97594.63;5005906;28;20141;-64
2022/11/30 02:30:06;;;;;;;44.85;19.95;;;;;;;4.22;100.00;97593.81;5003696;28;20512;-64
2022/11/30 02:32:47;;;;;;;41.53;17.77;;;;;;;4.22;100.00;97599.19;5003512;28;20141;-63
2022/11/30 02:35:18;;;;;;;38.22;17.42;;;;;;;4.35;100.00;97594.84;5006234;28;20078;-64
2022/11/30 02:37:45;;;;;;;39.25;18.25;;;;;;;4.32;100.00;97589.91;5010107;28;20115;-63
2022/11/30 02:40:16;;;;;;;44.35;18.08;;;;;;;4.32;100.00;97588.06;5009003;28;20056;-63
2022/11/30 02:42:43;;;;;;;34.63;16.17;;;;;;;4.39;100.00;97588.06;5009674;28;20034;-64
2022/11/30 02:45:11;;;;;;;33.65;16.13;;;;;;;4.34;100.00;97583.28;5009222;28;20050;-63
2022/11/30 02:47:50;;;;;;;29.48;15.85;;;;;;;4.25;100.00;97588.06;5009875;28;20137;-63
2022/11/30 02:50:27;;;;;;;31.50;15.40;;;;;;;4.13;100.00;97579.78;5026704;28;20199;-63
2022/11/30 02:52:54;;;;;;;33.63;16.98;;;;;;;4.11;100.00;97581.84;5029001;28;20554;-63
2022/11/30 02:55:21;;;;;;;34.90;17.23;;;;;;;4.12;100.00;97594.22;5029678;28;20124;-64
2022/11/30 02:57:48;;;;;;;34.28;17.20;;;;;;;4.19;100.00;97588.03;5029091;28;20080;-64
2022/11/30 03:00:15;;;;;;;35.42;16.73;;;;;;;4.28;100.00;97582.25;5029126;28;20037;-64
2022/11/30 03:02:42;;;;;;;33.40;15.90;;;;;;;4.32;100.00;97579.19;5029477;28;20396;-63
2022/11/30 03:05:08;;;;;;;32.85;16.48;;;;;;;4.29;100.00;97575.88;5024665;28;20052;-63
2022/11/30 03:07:35;;;;;;;31.65;15.98;;;;;;;4.29;100.00;97586.63;5027566;28;20045;-64
2022/11/30 03:10:02;;;;;;;33.97;16.92;;;;;;;4.24;100.00;97585.56;5028001;28;20065;-63
2022/11/30 03:12:29;;;;;;;32.22;16.98;;;;;;;4.20;100.00;97587.00;5028529;28;20058;-63
2022/11/30 03:14:55;;;;;;;29.08;14.60;;;;;;;4.25;100.00;97592.56;5024655;28;20045;-63
2022/11/30 03:17:22;;;;;;;26.83;14.30;;;;;;;4.27;100.00;97585.97;5029308;28;20049;-64
2022/11/30 03:19:48;;;;;;;25.13;15.55;;;;;;;4.25;100.00;97589.91;5029407;28;20056;-63
2022/11/30 03:22:15;;;;;;;28.65;15.38;;;;;;;4.28;100.00;97589.50;5027969;28;20134;-63
2022/11/30 03:24:41;;;;;;;27.70;15.20;;;;;;;4.37;100.00;97595.47;5029203;28;20659;-63
2022/11/30 03:27:08;;;;;;;26.90;14.38;;;;;;;4.34;100.00;97588.66;5021648;28;20038;-63
2022/11/30 03:29:34;;;;;;;25.63;13.52;;;;;;;4.23;100.00;97583.91;5011167;28;20165;-64
2022/11/30 03:32:00;;;;;;;24.17;13.93;;;;;;;4.22;100.00;97590.31;5026516;28;20121;-63
2022/11/30 03:34:27;;;;;;;27.73;15.32;;;;;;;4.17;100.00;97598.97;5028033;28;20037;-63
2022/11/30 03:36:54;;;;;;;31.92;16.23;;;;;;;4.20;100.00;97597.75;5028678;28;20045;-63
2022/11/30 03:39:20;;;;;;;31.65;16.30;;;;;;;4.16;100.00;97597.31;5028410;28;20053;-64
2022/11/30 03:41:46;;;;;;;34.03;16.90;;;;;;;4.20;100.00;97597.75;5028085;28;20073;-63
2022/11/30 03:44:13;;;;;;;31.08;16.33;;;;;;;4.20;100.00;97595.06;5017567;28;20046;-63
2022/11/30 03:46:39;;;;;;;32.03;16.17;;;;;;;4.24;100.00;97593.63;5008656;28;20056;-63
2022/11/30 03:49:06;;;;;;;27.08;15.13;;;;;;;4.22;100.00;97592.97;5015739;28;20046;-63
2022/11/30 03:51:33;;;;;;;29.05;15.30;;;;;;;4.20;100.00;97597.75;5027792;28;20057;-63
2022/11/30 03:53:59;;;;;;;30.52;15.80;;;;;;;4.20;100.00;97595.88;5028643;28;20500;-63
2022/11/30 03:56:26;;;;;;;28.05;15.15;;;;;;;4.26;100.00;97588.88;5027802;28;20604;-63
2022/11/30 03:58:53;;;;;;;27.38;14.55;;;;;;;4.26;100.00;97589.69;5028458;28;20092;-63
2022/11/30 04:01:22;;;;;;;30.02;16.23;;;;;;;4.24;100.00;97593.63;5027925;28;20133;-63
2022/11/30 04:03:50;;;;;;;30.70;16.05;;;;;;;4.23;100.00;97584.75;5027375;28;20041;-63
2022/11/30 04:06:18;;;;;;;29.15;15.25;;;;;;;4.19;100.00;97599.59;5028363;28;20049;-63
2022/11/30 04:08:44;;;;;;;30.40;16.17;;;;;;;4.23;100.00;97600.81;5028133;28;20045;-64
2022/11/30 04:11:12;;;;;;;31.65;16.42;;;;;;;4.14;100.00;97597.53;5027250;28;20084;-63
2022/11/30 04:13:39;;;;;;;32.10;16.25;;;;;;;4.09;100.00;97599.97;5021367;28;20095;-63
2022/11/30 04:16:06;;;;;;;34.88;17.63;;;;;;;4.11;100.00;97605.13;5008148;28;20050;-63
2022/11/30 04:18:34;;;;;;;32.90;16.73;;;;;;;4.10;100.00;97612.38;5010757;28;20061;-63
2022/11/30 04:21:01;;;;;;;37.05;17.50;;;;;;;4.14;100.00;97594.84;5027114;28;20050;-63
2022/11/30 04:23:30;;;;;;;30.38;16.08;;;;;;;4.11;100.00;97600.63;5028350;28;20108;-63
2022/11/30 04:25:57;;;;;;;35.15;18.02;;;;;;;4.14;100.00;97607.41;5027495;28;20100;-64
2022/11/30 04:28:23;;;;;;;31.20;16.73;;;;;;;4.22;100.00;97604.53;5027966;28;20045;-63
2022/11/30 04:30:52;;;;;;;40.88;18.52;;;;;;;4.19;100.00;97602.25;5027152;28;20065;-63
2022/11/30 04:33:19;;;;;;;29.17;15.85;;;;;;;4.20;100.00;97605.78;5013351;28;20258;-63
2022/11/30 04:35:53;;;;;;;32.35;16.38;;;;;;;4.17;100.00;97601.66;5022422;28;20128;-63
2022/11/30 04:38:19;;;;;;;30.92;16.65;;;;;;;4.19;100.00;97598.75;5027606;28;20116;-64
2022/11/30 04:40:46;;;;;;;32.13;16.73;;;;;;;4.16;100.00;97602.66;5026850;28;20064;-63
2022/11/30 04:43:12;;;;;;;32.85;17.00;;;;;;;4.15;100.00;97606.38;5024391;28;20084;-63
2022/11/30 04:45:39;;;;;;;32.92;16.70;;;;;;;4.19;100.00;97599.59;5007632;28;20115;-63
2022/11/30 04:48:06;;;;;;;35.63;16.80;;;;;;;4.21;100.00;97599.38;5007723;28;20080;-63
2022/11/30 04:50:34;;;;;;;30.27;16.58;;;;;;;4.21;100.00;97605.56;5026227;28;20511;-63
2022/11/30 04:53:01;;;;;;;31.63;15.73;;;;;;;4.21;100.00;97600.22;5027444;28;20481;-63
2022/11/30 04:55:27;;;;;;;28.25;15.07;;;;;;;4.20;100.00;97601.22;5027090;28;20049;-63
2022/11/30 04:57:54;;;;;;;28.42;15.50;;;;;;;4.21;100.00;97602.91;5026782;28;20045;-63
2022/11/30 05:00:21;;;;;;;25.88;14.48;;;;;;;4.21;100.00;97607.41;5027378;28;20528;-63
2022/11/30 05:02:47;;;;;;;29.00;15.38;;;;;;;4.18;100.00;97595.25;5026700;28;20065;-64
2022/11/30 05:05:19;;;;;;;31.25;15.35;;;;;;;4.17;100.00;97601.66;5027326;28;20041;-63
2022/11/30 05:07:49;;;;;;;32.05;15.93;;;;;;;4.16;100.00;97608.03;5027504;28;20041;-63
2022/11/30 05:10:16;;;;;;;31.23;16.55;;;;;;;4.14;100.00;97602.88;5026607;28;20124;-63
2022/11/30 05:12:43;;;;;;;30.58;17.45;;;;;;;4.18;100.00;97613.19;5026438;28;20559;-63
2022/11/30 05:15:10;;;;;;;27.73;15.23;;;;;;;4.18;100.00;97616.69;5007473;28;20099;-63
2022/11/30 05:17:37;;;;;;;29.50;15.80;;;;;;;4.18;100.00;97613.19;5006775;28;20069;-63
2022/11/30 05:20:05;;;;;;;28.92;15.95;;;;;;;4.23;100.00;97611.53;5020779;28;20281;-63
2022/11/30 05:22:33;;;;;;;28.65;14.55;;;;;;;4.23;100.00;97614.22;5019642;28;20044;-63
2022/11/30 05:25:00;;;;;;;27.38;14.65;;;;;;;4.21;100.00;97616.28;5025086;28;20052;-64
2022/11/30 05:27:27;;;;;;;31.42;15.10;;;;;;;4.20;100.00;97611.13;5023922;28;20103;-63
2022/11/30 05:29:54;;;;;;;27.60;15.38;;;;;;;4.20;100.00;97608.47;5025735;28;20045;-63
2022/11/30 05:32:20;;;;;;;26.80;14.48;;;;;;;4.21;100.00;97615.47;5024289;28;20041;-63
2022/11/30 05:34:47;;;;;;;29.83;15.18;;;;;;;4.19;100.00;97620.19;5024354;28;20045;-63
2022/11/30 05:37:17;;;;;;;27.02;14.80;;;;;;;4.14;100.00;97623.50;5025590;28;20591;-63
2022/11/30 05:39:44;;;;;;;26.83;14.32;;;;;;;4.15;100.00;97625.97;5024924;28;20037;-63
2022/11/30 05:42:10;;;;;;;34.97;15.60;;;;;;;4.10;100.00;97627.63;5025334;28;20095;-63
2022/11/30 05:44:37;;;;;;;28.65;15.73;;;;;;;4.14;100.00;97626.19;5014126;28;20124;-63
2022/11/30 05:47:03;;;;;;;31.83;15.27;;;;;;;4.12;100.00;97621.03;5022492;28;20045;-63
2022/11/30 05:49:30;;;;;;;30.88;16.98;;;;;;;4.12;100.00;97625.53;5025423;28;20052;-63
2022/11/30 05:51:56;;;;;;;29.23;15.38;;;;;;;4.07;100.00;97628.00;5025240;28;20119;-63
2022/11/30 05:54:23;;;;;;;30.85;15.68;;;;;;;4.11;100.00;97634.63;5024820;28;20080;-63
2022/11/30 05:56:49;;;;;;;34.40;16.23;;;;;;;4.10;100.00;97636.50;5025310;28;20115;-63
2022/11/30 05:59:21;;;;;;;32.42;16.67;;;;;;;4.12;100.00;97639.78;5025678;28;20128;-63
2022/11/30 06:01:47;;;;;;;36.15;17.25;;;;;;;4.09;100.00;97632.13;5024500;28;20503;-64
2022/11/30 06:04:14;;;;;;;43.28;16.65;;;;;;;4.00;100.00;97634.19;5025105;28;20080;-64
2022/11/30 06:06:40;;;;;;;32.95;17.10;;;;;;;4.02;100.00;97631.31;5025026;28;20421;-63
2022/11/30 06:09:07;;;;;;;37.47;16.70;;;;;;;4.06;100.00;97643.28;5024483;28;20116;-64
2022/11/30 06:11:33;;;;;;;38.08;17.83;;;;;;;4.02;100.00;97631.31;5023738;28;20583;-64
2022/11/30 06:14:00;;;;;;;32.70;15.43;;;;;;;4.08;100.00;97643.06;5011791;28;20046;-64
2022/11/30 06:16:27;;;;;;;32.67;16.02;;;;;;;4.12;100.00;97633.59;5005155;28;20502;-64
2022/11/30 06:18:53;;;;;;;33.55;16.05;;;;;;;4.12;100.00;97636.25;5011068;28;20095;-63
2022/11/30 06:21:20;;;;;;;30.83;15.80;;;;;;;4.03;100.00;97636.44;4986542;28;1089729;-64
2022/11/30 06:23:51;;;;;;;30.25;15.15;;;;;;;4.00;100.00;97628.84;5025335;28;20037;-63
2022/11/30 06:26:17;;;;;;;30.77;15.50;;;;;;;4.02;100.00;97634.00;5025564;28;20091;-64
2022/11/30 06:28:44;;;;;;;32.67;16.02;;;;;;;4.01;100.00;97633.16;5025963;28;20107;-63
2022/11/30 06:31:15;;;;;;;47.13;16.80;;;;;;;3.97;100.00;97626.56;5025081;28;20103;-63
2022/11/30 06:33:42;;;;;;;29.85;14.18;;;;;;;4.03;100.00;97639.13;5025567;28;20183;-63
2022/11/30 06:36:09;;;;;;;56.25;15.45;;;;;;;4.09;100.00;97636.69;5025899;28;20045;-64
2022/11/30 06:38:37;;;;;;;30.75;14.88;;;;;;;4.14;100.00;97636.91;5025349;28;20037;-60
2022/11/30 06:41:09;;;;;;;29.25;14.63;;;;;;;4.17;100.00;97628.47;5025690;28;20049;-57
2022/11/30 06:43:37;;;;;;;33.10;13.45;;;;;;;4.20;100.00;97625.34;5018762;28;20042;-59
2022/11/30 06:46:05;;;;;;;48.05;15.70;;;;;;;4.03;100.00;97625.72;5004638;28;20096;-59
2022/11/30 06:48:32;;;;;;;40.28;15.43;;;;;;;4.03;100.00;97627.59;5008225;28;20086;-59
2022/11/30 06:51:00;;;;;;;48.65;15.25;;;;;;;3.96;100.00;97630.28;5022946;28;20049;-60
2022/11/30 06:53:26;;;;;;;28.77;14.70;;;;;;;3.98;100.00;97638.91;5023813;28;20061;-55
2022/11/30 06:55:53;;;;;;;30.73;15.50;;;;;;;3.96;100.00;97634.78;5025264;28;20548;-59
2022/11/30 06:58:19;;;;;;;52.03;16.05;;;;;;;3.95;100.00;97642.03;5025274;28;20049;-59
2022/11/30 07:00:46;;;;;;;50.38;15.73;;;;;;;3.90;100.00;97641.78;5025225;28;20076;-59
2022/11/30 07:03:13;;;;;;;37.40;16.63;;;;;;;3.95;100.00;97650.06;5025229;28;20076;-58
2022/11/30 07:05:44;;;;;;;48.05;16.20;;;;;;;3.97;100.00;97647.16;5025657;28;20505;-60
2022/11/30 07:08:13;;;;;;;37.40;17.42;;;;;;;3.98;100.00;97651.50;5025047;28;20080;-57
2022/11/30 07:10:40;;;;;;;28.70;14.07;;;;;;;4.02;100.00;97648.19;5025370;28;20092;-56
2022/11/30 07:13:11;;;;;;;43.83;16.70;;;;;;;4.06;100.00;97653.16;5022955;28;20337;-58
2022/11/30 07:15:39;;;;;;;29.63;15.43;;;;;;;4.11;100.00;97656.06;5005247;28;20399;-57
2022/11/30 07:18:06;;;;;;;62.78;16.67;;;;;;;3.97;100.00;97650.66;5005590;28;20281;-61
2022/11/30 07:20:33;;;;;;;33.92;16.05;;;;;;;4.03;100.00;97655.22;5022172;28;20060;-61
2022/11/30 07:26:05;;;;;;;34.17;16.45;;;;;;;4.01;100.00;97651.91;5028489;28;20689;-58
2022/11/30 07:26:06;;;;;;;34.95;15.07;;;;;;;4.06;100.00;97645.13;5027842;28;20054;-59
2022/11/30 07:28:38;;;;;;;31.67;14.30;;;;;;;4.14;100.00;97652.97;5020395;28;20491;-60
2022/11/30 07:31:19;;;;;;;29.13;14.95;;;;;;;4.12;100.00;97652.34;5022245;28;20127;-60
2022/11/30 07:33:47;;;;;;;29.40;14.00;;;;;;;4.14;100.00;97655.66;5023626;28;20523;-58
2022/11/30 07:36:15;;;;;;;27.75;13.93;;;;;;;4.12;100.00;97657.69;5026171;28;20047;-58
2022/11/30 07:38:43;;;;;;;28.33;14.80;;;;;;;4.08;100.00;97653.78;5024481;28;20305;-59
2022/11/30 07:41:09;;;;;;;31.92;13.50;;;;;;;4.09;100.00;97660.81;5021532;28;20073;-58
2022/11/30 07:43:36;;;;;;;26.77;13.43;;;;;;;4.12;100.00;97653.19;5030094;28;20041;-59
2022/11/30 07:46:03;;;;;;;27.83;15.25;;;;;;;4.18;100.00;97656.06;5021912;28;20100;-59
2022/11/30 07:48:30;;;;;;;27.77;13.90;;;;;;;4.17;100.00;97655.25;5020006;28;20068;-58
2022/11/30 07:51:23;;;;;;;29.25;14.55;;;;;;;4.12;100.00;97653.19;5025817;28;20038;-61
2022/11/30 07:53:50;;;;;;;26.52;12.98;;;;;;;4.13;100.00;97659.38;5036560;28;20103;-59
2022/11/30 07:56:18;;;;;;;28.50;14.07;;;;;;;4.09;100.00;97661.63;5028499;28;20540;-55
2022/11/30 07:58:45;;;;;;;28.55;14.82;;;;;;;4.13;100.00;97664.72;5026417;28;20132;-59
2022/11/30 08:01:21;;;;;;;29.52;13.88;;;;;;;4.19;100.00;97663.91;5024530;28;20056;-58
2022/11/30 08:03:49;;;;;;;32.00;15.55;;;;;;;4.22;100.00;97663.50;5013617;28;20042;-57
2022/11/30 08:06:21;;;;;;;30.52;15.18;;;;;;;4.25;100.00;97676.50;5022867;28;20051;-60
2022/11/30 08:08:49;;;;;;;31.17;14.73;;;;;;;4.26;100.00;97667.44;5021074;28;20132;-59
2022/11/30 08:11:22;;;;;;;30.02;14.70;;;;;;;4.26;100.00;97672.78;5024302;28;20063;-57
2022/11/30 08:13:49;;;;;;;33.75;15.45;;;;;;;4.18;100.00;97672.16;5025655;28;20174;-55
2022/11/30 08:16:19;;;;;;;28.05;13.80;;;;;;;4.23;100.00;97667.00;5026075;28;20041;-55
2022/11/30 08:18:46;;;;;;;29.08;14.82;;;;;;;4.23;100.00;97675.88;5026436;28;20050;-54
2022/11/30 08:21:15;;;;;;;31.30;14.48;;;;;;;4.12;100.00;97673.78;5029960;28;20053;-54
2022/11/30 08:23:44;;;;;;;28.02;13.85;;;;;;;4.20;100.00;97676.28;5017330;28;20104;-59
2022/11/30 08:26:13;;;;;;;28.15;13.27;;;;;;;4.20;100.00;97676.28;5026524;28;20041;-57
2022/11/30 08:28:41;;;;;;;27.23;13.50;;;;;;;4.21;100.00;97677.09;5037795;28;20079;-56
2022/11/30 08:31:11;;;;;;;26.80;13.60;;;;;;;4.23;100.00;97675.88;5025871;28;20111;-56
2022/11/30 08:33:38;;;;;;;30.10;13.68;;;;;;;4.32;100.00;97681.03;5024178;28;20041;-58
2022/11/30 08:36:06;;;;;;;22.10;12.63;;;;;;;4.35;100.00;97683.31;5025275;28;20080;-60
2022/11/30 08:38:33;;;;;;;24.25;12.40;;;;;;;4.35;100.00;97681.44;5021578;28;20045;-59
2022/11/30 08:40:59;;;;;;;26.25;13.25;;;;;;;4.39;100.00;97687.25;5018366;28;20052;-57
2022/11/30 08:43:27;;;;;;;25.00;12.65;;;;;;;4.45;100.00;97686.41;5031388;28;20136;-59
2022/11/30 08:45:54;;;;;;;24.02;13.50;;;;;;;4.48;100.00;97690.53;5025557;28;20155;-57
2022/11/30 08:48:23;;;;;;;24.73;12.15;;;;;;;4.49;100.00;97693.03;5025398;28;20045;-57
2022/11/30 08:50:49;;;;;;;20.63;12.05;;;;;;;4.49;100.00;97678.81;5024321;28;20128;-58
2022/11/30 08:53:16;;;;;;;24.25;12.68;;;;;;;4.38;100.00;97685.56;5025209;28;20065;-59
2022/11/30 08:55:42;;;;;;;24.95;12.57;;;;;;;4.46;100.00;97682.69;5021664;28;20489;-59
2022/11/30 08:58:09;;;;;;;23.23;12.52;;;;;;;4.49;100.00;97694.91;5018822;28;20518;-57
2022/11/30 09:00:35;;;;;;;27.17;11.93;;;;;;;4.43;100.00;97693.84;5011056;28;20049;-57
2022/11/30 09:03:02;;;;;;;23.50;11.98;;;;;;;4.51;100.00;97687.47;5038655;28;20041;-59
2022/11/30 09:05:28;;;;;;;26.77;12.55;;;;;;;4.58;100.00;97687.47;5023446;28;20095;-59
2022/11/30 09:07:55;;;;;;;23.00;12.45;;;;;;;4.57;100.00;97691.19;5012693;28;20505;-60
2022/11/30 09:10:21;;;;;;;22.73;13.63;;;;;;;4.59;100.00;97691.78;5025220;28;20116;-59
2022/11/30 09:12:48;;;;;;;22.65;12.25;;;;;;;4.58;100.00;97690.16;5024692;28;20041;-58
2022/11/30 09:15:14;;;;;;;28.55;13.55;;;;;;;4.59;100.00;97694.47;5024663;28;20053;-59
2022/11/30 09:17:41;;;;;;;24.80;13.90;;;;;;;4.65;100.00;97693.66;5038228;28;20072;-59
2022/11/30 09:20:08;;;;;;;29.60;13.98;;;;;;;4.63;100.00;97693.88;5032815;28;20074;-60
2022/11/30 09:22:34;;;;;;;25.10;12.95;;;;;;;4.64;100.00;97700.88;5028905;28;20483;-59
2022/11/30 09:25:01;;;;;;;27.17;14.50;;;;;;;4.63;100.00;97704.59;5016992;28;20050;-59
2022/11/30 09:27:31;;;;;;;27.15;13.95;;;;;;;4.69;100.00;97695.72;5024201;28;20128;-56
2022/11/30 09:29:57;;;;;;;29.13;13.93;;;;;;;4.75;100.00;97704.81;5023893;28;20103;-60
2022/11/30 09:32:24;;;;;;;28.15;14.10;;;;;;;4.79;100.00;97703.34;5024443;28;20468;-60
2022/11/30 09:34:50;;;;;;;29.65;14.77;;;;;;;4.77;100.00;97701.91;5024569;28;20041;-58
2022/11/30 09:37:17;;;;;;;29.85;15.45;;;;;;;4.76;100.00;97697.59;5018890;28;20072;-58
2022/11/30 09:39:44;;;;;;;31.17;14.40;;;;;;;4.74;100.00;97699.63;5024855;28;20128;-57
2022/11/30 09:42:27;;;;;;;28.48;14.77;;;;;;;4.72;100.00;97704.41;5024149;28;20099;-56
2022/11/30 09:45:03;;;;;;;27.58;14.05;;;;;;;4.76;100.00;97701.09;5022463;28;20068;-58
2022/11/30 09:47:48;;;;;;;29.23;14.90;;;;;;;4.76;100.00;97706.44;5015320;28;20033;-58
2022/11/30 09:50:19;;;;;;;30.58;15.32;;;;;;;4.69;100.00;97700.28;5016859;28;20568;-56
2022/11/30 09:52:51;;;;;;;32.57;15.77;;;;;;;4.75;100.00;97701.31;5016449;28;20045;-58
2022/11/30 09:55:29;;;;;;;31.38;15.55;;;;;;;4.69;100.00;97697.59;5013941;28;20067;-59
2022/11/30 09:58:00;;;;;;;32.28;16.02;;;;;;;4.69;100.00;97702.97;5019724;28;20059;-60
2022/11/30 10:00:27;;;;;;;30.92;15.40;;;;;;;4.72;100.00;97699.03;5009650;28;20100;-58
2022/11/30 10:02:55;;;;;;;31.75;16.20;;;;;;;4.82;100.00;97694.91;5021449;28;20045;-60
2022/11/30 10:05:38;;;;;;;29.27;14.82;;;;;;;4.87;100.00;97691.59;5034181;28;20041;-56
2022/11/30 10:08:30;;;;;;;37.17;18.40;;;;;;;5.00;100.00;97698.81;5017262;28;20045;-60
2022/11/30 10:11:32;;;;;;;31.50;15.48;;;;;;;5.04;100.00;97694.69;5021590;28;20121;-60
2022/11/30 10:14:11;;;;;;;31.85;15.40;;;;;;;5.14;100.00;97696.13;5019729;28;20414;-60
2022/11/30 10:16:51;;;;;;;33.25;15.15;;;;;;;5.12;100.00;97693.63;5013508;28;20088;-63
2022/11/30 10:19:47;;;;;;;27.88;14.82;;;;;;;5.20;100.00;97690.72;5014890;28;20100;-61
2022/11/30 10:23:02;;;;;;;26.40;14.32;;;;;;;5.16;100.00;97689.50;5019394;28;20682;-61
2022/11/30 10:25:40;;;;;;;25.75;13.73;;;;;;;5.26;100.00;97683.72;5012065;28;20456;-61
2022/11/30 10:28:28;;;;;;;28.85;15.43;;;;;;;5.30;100.00;97682.25;5008474;28;20050;-65
2022/11/30 10:31:15;;;;;;;29.65;14.15;;;;;;;5.46;100.00;97678.28;5003717;28;20046;-61
2022/11/30 10:33:51;;;;;;;27.88;14.13;;;;;;;5.51;100.00;97679.50;5018836;28;20041;-60
2022/11/30 10:36:28;;;;;;;29.70;14.15;;;;;;;5.51;100.00;97682.19;5022565;28;20058;-60
2022/11/30 10:38:59;;;;;;;22.98;12.15;;;;;;;5.50;100.00;97677.88;5023616;28;20072;-60
2022/11/30 10:41:45;;;;;;;;;;;;;;;5.57;100.00;97676.00;5019118;28;20096;-59
2022/11/30 10:44:38;;;;;;;21.05;12.02;;;;;;;5.55;100.00;97675.34;5013474;28;19921;-60
2022/11/30 10:47:25;;;;;;;22.88;13.48;;;;;;;5.46;100.00;97680.16;5004750;28;20053;-61
2022/11/30 10:49:52;;;;;;;23.55;13.20;;;;;;;5.41;100.00;97670.03;5019126;28;20037;-60
2022/11/30 10:52:32;;;;;;;21.02;12.63;;;;;;;5.49;100.00;97668.16;5023429;28;20598;-60
2022/11/30 10:54:59;;;;;;;22.65;12.70;;;;;;;5.50;100.00;97670.63;5023833;28;20049;-60
2022/11/30 10:57:31;;;;;;;;;;;;;;;5.53;100.00;97672.06;5026340;28;20131;-62
2022/11/30 11:00:00;;;;;;;25.20;13.52;;;;;;;5.50;100.00;97661.75;5027466;28;19967;-61
2022/11/30 11:02:39;;;;;;;23.17;12.95;;;;;;;5.28;100.00;97667.38;5027297;28;20042;-61
2022/11/30 11:05:06;;;;;;;27.25;14.48;;;;;;;5.08;100.00;97666.41;5015187;28;20038;-61
2022/11/30 11:07:44;;;;;;;33.30;15.85;;;;;;;5.10;100.00;97666.19;5019736;28;20060;-60
2022/11/30 11:10:15;;;;;;;24.50;13.68;;;;;;;5.21;100.00;97665.53;5027046;28;20148;-61
2022/11/30 11:12:51;;;;;;;24.75;13.85;;;;;;;5.29;100.00;97666.34;5040736;28;20045;-61
2022/11/30 11:15:17;;;;;;;24.60;14.27;;;;;;;5.28;100.00;97672.75;5027261;28;20038;-62
2022/11/30 11:17:44;;;;;;;23.30;12.45;;;;;;;5.33;100.00;97668.41;5032046;28;20126;-61
2022/11/30 11:20:30;;;;;;;21.38;12.43;;;;;;;5.30;100.00;97663.44;5024919;28;20053;-58
2022/11/30 11:22:57;;;;;;;27.40;17.08;;;;;;;5.31;100.00;97665.09;5021473;28;20563;-56
2022/11/30 11:25:31;;;;;;;30.10;19.75;;;;;;;5.23;100.00;97665.31;5023375;28;20076;-61
2022/11/30 11:28:12;;;;;;;26.23;16.65;;;;;;;5.14;100.00;97669.28;5046946;28;20087;-61
2022/11/30 11:30:39;;;;;;;21.17;13.40;;;;;;;5.23;100.00;97672.56;5028338;28;20084;-58